sensor_id;sensor_type;location;lat;lon;timestamp;P1;durP1;ratioP1;P2;durP2;ratioP2
28772;SDS011;15925;51.222;5.678;2023-07-22T00:02:19;6.33;;;2.80;;
28772;SDS011;15925;51.222;5.678;2023-07-22T00:07:11;8.70;;;3.22;;
28772;SDS011;15925;51.222;5.678;2023-07-22T00:09:37;6.65;;;3.05;;
28772;SDS011;15925;51.222;5.678;2023-07-22T00:12:04;15.60;;;3.50;;
28772;SDS011;15925;51.222;5.678;2023-07-22T00:14:30;6.85;;;3.28;;
28772;SDS011;15925;51.222;5.678;2023-07-22T00:16:55;4.83;;;3.17;;
28772;SDS011;15925;51.222;5.678;2023-07-22T00:19:21;4.40;;;2.87;;
28772;SDS011;15925;51.222;5.678;2023-07-22T00:21:48;6.28;;;2.78;;
28772;SDS011;15925;51.222;5.678;2023-07-22T00:24:14;6.88;;;2.42;;
28772;SDS011;15925;51.222;5.678;2023-07-22T00:26:40;8.07;;;3.23;;
28772;SDS011;15925;51.222;5.678;2023-07-22T00:29:07;6.13;;;3.30;;
28772;SDS011;15925;51.222;5.678;2023-07-22T00:31:33;5.23;;;3.17;;
28772;SDS011;15925;51.222;5.678;2023-07-22T00:33:59;5.93;;;3.07;;
28772;SDS011;15925;51.222;5.678;2023-07-22T00:36:25;5.10;;;3.13;;
28772;SDS011;15925;51.222;5.678;2023-07-22T00:38:51;7.05;;;3.03;;
28772;SDS011;15925;51.222;5.678;2023-07-22T00:41:18;12.00;;;4.35;;
28772;SDS011;15925;51.222;5.678;2023-07-22T00:43:44;15.60;;;3.47;;
28772;SDS011;15925;51.222;5.678;2023-07-22T00:46:10;7.93;;;3.20;;
28772;SDS011;15925;51.222;5.678;2023-07-22T00:48:35;15.20;;;3.33;;
28772;SDS011;15925;51.222;5.678;2023-07-22T00:51:03;4.30;;;2.58;;
28772;SDS011;15925;51.222;5.678;2023-07-22T00:53:29;7.30;;;2.88;;
28772;SDS011;15925;51.222;5.678;2023-07-22T00:55:55;5.23;;;2.80;;
28772;SDS011;15925;51.222;5.678;2023-07-22T00:58:21;7.15;;;3.38;;
28772;SDS011;15925;51.222;5.678;2023-07-22T01:00:47;5.85;;;2.88;;
28772;SDS011;15925;51.222;5.678;2023-07-22T01:03:13;9.88;;;4.25;;
28772;SDS011;15925;51.222;5.678;2023-07-22T01:05:39;6.97;;;3.20;;
28772;SDS011;15925;51.222;5.678;2023-07-22T01:08:06;3.22;;;1.92;;
28772;SDS011;15925;51.222;5.678;2023-07-22T01:10:32;5.53;;;3.17;;
28772;SDS011;15925;51.222;5.678;2023-07-22T01:12:58;5.07;;;2.63;;
28772;SDS011;15925;51.222;5.678;2023-07-22T01:15:24;5.78;;;3.45;;
28772;SDS011;15925;51.222;5.678;2023-07-22T01:17:50;7.32;;;2.78;;
28772;SDS011;15925;51.222;5.678;2023-07-22T01:20:16;11.05;;;3.15;;
28772;SDS011;15925;51.222;5.678;2023-07-22T01:22:53;3.80;;;2.65;;
28772;SDS011;15925;51.222;5.678;2023-07-22T01:25:19;6.53;;;2.78;;
28772;SDS011;15925;51.222;5.678;2023-07-22T01:27:50;7.18;;;3.20;;
28772;SDS011;15925;51.222;5.678;2023-07-22T01:30:17;7.20;;;2.90;;
28772;SDS011;15925;51.222;5.678;2023-07-22T01:32:43;8.25;;;4.30;;
28772;SDS011;15925;51.222;5.678;2023-07-22T01:35:09;9.18;;;3.45;;
28772;SDS011;15925;51.222;5.678;2023-07-22T01:37:35;6.70;;;3.40;;
28772;SDS011;15925;51.222;5.678;2023-07-22T01:40:01;6.10;;;2.83;;
28772;SDS011;15925;51.222;5.678;2023-07-22T01:42:37;7.63;;;3.33;;
28772;SDS011;15925;51.222;5.678;2023-07-22T01:45:07;10.85;;;2.92;;
28772;SDS011;15925;51.222;5.678;2023-07-22T01:47:34;4.60;;;2.55;;
28772;SDS011;15925;51.222;5.678;2023-07-22T01:50:03;7.85;;;2.88;;
28772;SDS011;15925;51.222;5.678;2023-07-22T01:52:31;6.32;;;3.17;;
28772;SDS011;15925;51.222;5.678;2023-07-22T01:54:57;6.63;;;2.97;;
28772;SDS011;15925;51.222;5.678;2023-07-22T01:57:23;9.00;;;3.57;;
28772;SDS011;15925;51.222;5.678;2023-07-22T01:59:49;5.80;;;2.60;;
28772;SDS011;15925;51.222;5.678;2023-07-22T02:02:15;8.07;;;2.65;;
28772;SDS011;15925;51.222;5.678;2023-07-22T02:04:41;13.93;;;3.53;;
28772;SDS011;15925;51.222;5.678;2023-07-22T02:07:07;14.57;;;2.90;;
28772;SDS011;15925;51.222;5.678;2023-07-22T02:09:33;6.35;;;3.47;;
28772;SDS011;15925;51.222;5.678;2023-07-22T02:11:59;7.53;;;3.17;;
28772;SDS011;15925;51.222;5.678;2023-07-22T02:14:25;4.40;;;2.67;;
28772;SDS011;15925;51.222;5.678;2023-07-22T02:16:50;6.37;;;3.47;;
28772;SDS011;15925;51.222;5.678;2023-07-22T02:19:16;6.03;;;2.83;;
28772;SDS011;15925;51.222;5.678;2023-07-22T02:21:42;7.30;;;2.87;;
28772;SDS011;15925;51.222;5.678;2023-07-22T02:24:08;5.43;;;2.67;;
28772;SDS011;15925;51.222;5.678;2023-07-22T02:26:35;6.43;;;2.30;;
28772;SDS011;15925;51.222;5.678;2023-07-22T02:29:01;5.45;;;2.83;;
28772;SDS011;15925;51.222;5.678;2023-07-22T02:31:27;4.20;;;2.30;;
28772;SDS011;15925;51.222;5.678;2023-07-22T02:33:53;8.37;;;3.37;;
28772;SDS011;15925;51.222;5.678;2023-07-22T02:36:19;7.30;;;3.47;;
28772;SDS011;15925;51.222;5.678;2023-07-22T02:38:45;5.70;;;2.35;;
28772;SDS011;15925;51.222;5.678;2023-07-22T02:41:12;4.28;;;2.55;;
28772;SDS011;15925;51.222;5.678;2023-07-22T02:43:37;10.23;;;3.00;;
28772;SDS011;15925;51.222;5.678;2023-07-22T02:46:05;8.45;;;2.70;;
28772;SDS011;15925;51.222;5.678;2023-07-22T02:48:33;6.55;;;2.75;;
28772;SDS011;15925;51.222;5.678;2023-07-22T02:51:06;8.25;;;3.80;;
28772;SDS011;15925;51.222;5.678;2023-07-22T02:53:33;9.38;;;3.55;;
28772;SDS011;15925;51.222;5.678;2023-07-22T02:56:00;9.38;;;3.95;;
28772;SDS011;15925;51.222;5.678;2023-07-22T02:58:26;8.30;;;4.05;;
28772;SDS011;15925;51.222;5.678;2023-07-22T03:00:52;12.70;;;4.50;;
28772;SDS011;15925;51.222;5.678;2023-07-22T03:03:18;7.70;;;3.20;;
28772;SDS011;15925;51.222;5.678;2023-07-22T03:05:44;9.25;;;3.55;;
28772;SDS011;15925;51.222;5.678;2023-07-22T03:08:10;9.00;;;4.18;;
28772;SDS011;15925;51.222;5.678;2023-07-22T03:10:36;11.68;;;3.63;;
28772;SDS011;15925;51.222;5.678;2023-07-22T03:13:02;6.90;;;3.53;;
28772;SDS011;15925;51.222;5.678;2023-07-22T03:15:28;10.70;;;4.27;;
28772;SDS011;15925;51.222;5.678;2023-07-22T03:17:54;6.88;;;3.13;;
28772;SDS011;15925;51.222;5.678;2023-07-22T03:20:21;9.57;;;3.60;;
28772;SDS011;15925;51.222;5.678;2023-07-22T03:22:48;7.57;;;3.28;;
28772;SDS011;15925;51.222;5.678;2023-07-22T03:25:14;14.13;;;4.70;;
28772;SDS011;15925;51.222;5.678;2023-07-22T03:27:42;7.45;;;3.22;;
28772;SDS011;15925;51.222;5.678;2023-07-22T03:30:11;15.73;;;4.25;;
28772;SDS011;15925;51.222;5.678;2023-07-22T03:32:40;5.88;;;3.03;;
28772;SDS011;15925;51.222;5.678;2023-07-22T03:35:08;6.25;;;2.67;;
28772;SDS011;15925;51.222;5.678;2023-07-22T03:37:37;8.60;;;4.03;;
28772;SDS011;15925;51.222;5.678;2023-07-22T03:40:06;11.85;;;3.95;;
28772;SDS011;15925;51.222;5.678;2023-07-22T03:42:37;10.13;;;3.40;;
28772;SDS011;15925;51.222;5.678;2023-07-22T03:45:03;8.23;;;3.85;;
28772;SDS011;15925;51.222;5.678;2023-07-22T03:47:29;17.48;;;4.03;;
28772;SDS011;15925;51.222;5.678;2023-07-22T03:49:55;8.17;;;3.17;;
28772;SDS011;15925;51.222;5.678;2023-07-22T03:52:21;7.57;;;3.25;;
28772;SDS011;15925;51.222;5.678;2023-07-22T03:54:48;7.82;;;3.25;;
28772;SDS011;15925;51.222;5.678;2023-07-22T03:57:13;13.03;;;3.30;;
28772;SDS011;15925;51.222;5.678;2023-07-22T03:59:39;9.48;;;4.05;;
28772;SDS011;15925;51.222;5.678;2023-07-22T04:02:05;11.67;;;4.37;;
28772;SDS011;15925;51.222;5.678;2023-07-22T04:04:31;10.60;;;3.90;;
28772;SDS011;15925;51.222;5.678;2023-07-22T04:06:57;8.85;;;3.80;;
28772;SDS011;15925;51.222;5.678;2023-07-22T04:09:23;6.27;;;3.13;;
28772;SDS011;15925;51.222;5.678;2023-07-22T04:11:49;7.53;;;3.73;;
28772;SDS011;15925;51.222;5.678;2023-07-22T04:14:14;7.60;;;2.80;;
28772;SDS011;15925;51.222;5.678;2023-07-22T04:16:40;6.65;;;3.03;;
28772;SDS011;15925;51.222;5.678;2023-07-22T04:19:06;8.50;;;3.57;;
28772;SDS011;15925;51.222;5.678;2023-07-22T04:21:32;11.45;;;3.38;;
28772;SDS011;15925;51.222;5.678;2023-07-22T04:23:58;8.77;;;3.53;;
28772;SDS011;15925;51.222;5.678;2023-07-22T04:26:24;6.87;;;3.60;;
28772;SDS011;15925;51.222;5.678;2023-07-22T04:28:50;9.25;;;3.92;;
28772;SDS011;15925;51.222;5.678;2023-07-22T04:31:16;6.93;;;3.22;;
28772;SDS011;15925;51.222;5.678;2023-07-22T04:33:42;7.03;;;4.35;;
28772;SDS011;15925;51.222;5.678;2023-07-22T04:36:08;9.87;;;3.27;;
28772;SDS011;15925;51.222;5.678;2023-07-22T04:38:34;9.35;;;4.03;;
28772;SDS011;15925;51.222;5.678;2023-07-22T04:41:00;9.37;;;4.33;;
28772;SDS011;15925;51.222;5.678;2023-07-22T04:43:28;10.18;;;3.83;;
28772;SDS011;15925;51.222;5.678;2023-07-22T04:45:54;7.67;;;4.40;;
28772;SDS011;15925;51.222;5.678;2023-07-22T04:48:21;9.07;;;4.07;;
28772;SDS011;15925;51.222;5.678;2023-07-22T04:50:49;9.82;;;4.20;;
28772;SDS011;15925;51.222;5.678;2023-07-22T04:53:16;8.82;;;4.03;;
28772;SDS011;15925;51.222;5.678;2023-07-22T04:55:42;12.63;;;4.18;;
28772;SDS011;15925;51.222;5.678;2023-07-22T04:58:08;12.33;;;4.00;;
28772;SDS011;15925;51.222;5.678;2023-07-22T05:00:36;9.30;;;3.40;;
28772;SDS011;15925;51.222;5.678;2023-07-22T05:03:02;11.45;;;5.03;;
28772;SDS011;15925;51.222;5.678;2023-07-22T05:07:54;8.07;;;3.38;;
28772;SDS011;15925;51.222;5.678;2023-07-22T05:10:20;10.93;;;3.58;;
28772;SDS011;15925;51.222;5.678;2023-07-22T05:12:46;8.23;;;4.50;;
28772;SDS011;15925;51.222;5.678;2023-07-22T05:15:12;18.53;;;4.50;;
28772;SDS011;15925;51.222;5.678;2023-07-22T05:17:38;9.00;;;4.18;;
28772;SDS011;15925;51.222;5.678;2023-07-22T05:20:05;13.88;;;4.43;;
28772;SDS011;15925;51.222;5.678;2023-07-22T05:22:32;9.68;;;4.35;;
28772;SDS011;15925;51.222;5.678;2023-07-22T05:24:59;10.65;;;4.10;;
28772;SDS011;15925;51.222;5.678;2023-07-22T05:27:25;11.63;;;5.13;;
28772;SDS011;15925;51.222;5.678;2023-07-22T05:29:50;15.60;;;4.67;;
28772;SDS011;15925;51.222;5.678;2023-07-22T05:32:16;11.77;;;4.73;;
28772;SDS011;15925;51.222;5.678;2023-07-22T05:34:42;11.00;;;4.30;;
28772;SDS011;15925;51.222;5.678;2023-07-22T05:37:08;12.53;;;4.87;;
28772;SDS011;15925;51.222;5.678;2023-07-22T05:39:33;5.77;;;3.23;;
28772;SDS011;15925;51.222;5.678;2023-07-22T05:41:59;13.53;;;4.57;;
28772;SDS011;15925;51.222;5.678;2023-07-22T05:44:25;16.73;;;4.60;;
28772;SDS011;15925;51.222;5.678;2023-07-22T05:46:51;11.43;;;5.67;;
28772;SDS011;15925;51.222;5.678;2023-07-22T05:49:17;16.20;;;5.03;;
28772;SDS011;15925;51.222;5.678;2023-07-22T05:51:42;9.40;;;4.13;;
28772;SDS011;15925;51.222;5.678;2023-07-22T05:54:08;10.90;;;4.90;;
28772;SDS011;15925;51.222;5.678;2023-07-22T05:56:34;14.27;;;4.77;;
28772;SDS011;15925;51.222;5.678;2023-07-22T05:59:00;16.07;;;3.97;;
28772;SDS011;15925;51.222;5.678;2023-07-22T06:01:25;13.50;;;5.20;;
28772;SDS011;15925;51.222;5.678;2023-07-22T06:03:51;10.90;;;4.20;;
28772;SDS011;15925;51.222;5.678;2023-07-22T06:06:17;13.63;;;4.47;;
28772;SDS011;15925;51.222;5.678;2023-07-22T06:08:43;17.73;;;5.80;;
28772;SDS011;15925;51.222;5.678;2023-07-22T06:11:09;13.15;;;4.50;;
28772;SDS011;15925;51.222;5.678;2023-07-22T06:13:34;24.00;;;5.10;;
28772;SDS011;15925;51.222;5.678;2023-07-22T06:16:00;9.73;;;4.20;;
28772;SDS011;15925;51.222;5.678;2023-07-22T06:18:26;12.00;;;4.67;;
28772;SDS011;15925;51.222;5.678;2023-07-22T06:20:52;13.37;;;4.57;;
28772;SDS011;15925;51.222;5.678;2023-07-22T06:23:18;19.83;;;5.07;;
28772;SDS011;15925;51.222;5.678;2023-07-22T06:25:44;12.43;;;4.60;;
28772;SDS011;15925;51.222;5.678;2023-07-22T06:28:09;15.50;;;5.20;;
28772;SDS011;15925;51.222;5.678;2023-07-22T06:30:35;17.07;;;5.70;;
28772;SDS011;15925;51.222;5.678;2023-07-22T06:33:01;19.27;;;5.67;;
28772;SDS011;15925;51.222;5.678;2023-07-22T06:35:27;11.00;;;5.13;;
28772;SDS011;15925;51.222;5.678;2023-07-22T06:37:52;14.13;;;5.50;;
28772;SDS011;15925;51.222;5.678;2023-07-22T06:40:18;11.70;;;4.22;;
28772;SDS011;15925;51.222;5.678;2023-07-22T06:42:44;19.90;;;4.57;;
28772;SDS011;15925;51.222;5.678;2023-07-22T06:45:10;10.70;;;4.43;;
28772;SDS011;15925;51.222;5.678;2023-07-22T06:47:36;18.77;;;5.13;;
28772;SDS011;15925;51.222;5.678;2023-07-22T06:50:04;21.60;;;6.30;;
28772;SDS011;15925;51.222;5.678;2023-07-22T06:52:31;10.68;;;4.50;;
28772;SDS011;15925;51.222;5.678;2023-07-22T06:54:57;11.63;;;4.63;;
28772;SDS011;15925;51.222;5.678;2023-07-22T06:57:23;13.37;;;4.23;;
28772;SDS011;15925;51.222;5.678;2023-07-22T06:59:51;14.07;;;5.20;;
28772;SDS011;15925;51.222;5.678;2023-07-22T07:02:19;11.80;;;4.75;;
28772;SDS011;15925;51.222;5.678;2023-07-22T07:04:45;7.93;;;4.33;;
28772;SDS011;15925;51.222;5.678;2023-07-22T07:07:11;10.47;;;4.00;;
28772;SDS011;15925;51.222;5.678;2023-07-22T07:09:37;28.50;;;5.15;;
28772;SDS011;15925;51.222;5.678;2023-07-22T07:12:04;8.45;;;4.03;;
28772;SDS011;15925;51.222;5.678;2023-07-22T07:14:30;9.98;;;3.63;;
28772;SDS011;15925;51.222;5.678;2023-07-22T07:16:55;19.90;;;4.67;;
28772;SDS011;15925;51.222;5.678;2023-07-22T07:19:21;14.20;;;4.17;;
28772;SDS011;15925;51.222;5.678;2023-07-22T07:21:47;18.90;;;5.50;;
28772;SDS011;15925;51.222;5.678;2023-07-22T07:24:13;9.50;;;3.93;;
28772;SDS011;15925;51.222;5.678;2023-07-22T07:26:38;15.65;;;3.50;;
28772;SDS011;15925;51.222;5.678;2023-07-22T07:29:04;18.67;;;4.47;;
28772;SDS011;15925;51.222;5.678;2023-07-22T07:31:30;11.00;;;4.43;;
28772;SDS011;15925;51.222;5.678;2023-07-22T07:33:56;18.07;;;4.83;;
28772;SDS011;15925;51.222;5.678;2023-07-22T07:36:21;13.70;;;4.67;;
28772;SDS011;15925;51.222;5.678;2023-07-22T07:38:48;17.35;;;5.05;;
28772;SDS011;15925;51.222;5.678;2023-07-22T07:41:14;23.10;;;5.35;;
28772;SDS011;15925;51.222;5.678;2023-07-22T07:43:41;14.13;;;4.73;;
28772;SDS011;15925;51.222;5.678;2023-07-22T07:46:23;19.75;;;5.43;;
28772;SDS011;15925;51.222;5.678;2023-07-22T07:48:53;8.70;;;5.18;;
28772;SDS011;15925;51.222;5.678;2023-07-22T07:51:24;11.48;;;3.72;;
28772;SDS011;15925;51.222;5.678;2023-07-22T07:53:54;9.43;;;4.13;;
28772;SDS011;15925;51.222;5.678;2023-07-22T07:58:48;11.55;;;4.05;;
28772;SDS011;15925;51.222;5.678;2023-07-22T08:01:15;7.70;;;3.95;;
28772;SDS011;15925;51.222;5.678;2023-07-22T08:03:41;11.55;;;4.97;;
28772;SDS011;15925;51.222;5.678;2023-07-22T08:08:34;16.15;;;4.53;;
28772;SDS011;15925;51.222;5.678;2023-07-22T08:11:02;9.65;;;3.60;;
28772;SDS011;15925;51.222;5.678;2023-07-22T08:13:29;15.02;;;4.32;;
28772;SDS011;15925;51.222;5.678;2023-07-22T08:15:57;13.68;;;4.38;;
28772;SDS011;15925;51.222;5.678;2023-07-22T08:18:23;27.65;;;4.28;;
28772;SDS011;15925;51.222;5.678;2023-07-22T08:20:51;13.13;;;2.90;;
28772;SDS011;15925;51.222;5.678;2023-07-22T08:23:17;6.05;;;3.10;;
28772;SDS011;15925;51.222;5.678;2023-07-22T08:25:43;17.65;;;4.60;;
28772;SDS011;15925;51.222;5.678;2023-07-22T08:28:09;16.93;;;3.77;;
28772;SDS011;15925;51.222;5.678;2023-07-22T08:30:35;14.23;;;2.97;;
28772;SDS011;15925;51.222;5.678;2023-07-22T08:33:01;18.38;;;3.50;;
28772;SDS011;15925;51.222;5.678;2023-07-22T08:35:27;12.10;;;3.38;;
28772;SDS011;15925;51.222;5.678;2023-07-22T08:37:53;5.63;;;2.70;;
28772;SDS011;15925;51.222;5.678;2023-07-22T08:40:19;11.90;;;3.72;;
28772;SDS011;15925;51.222;5.678;2023-07-22T08:42:45;12.88;;;2.60;;
28772;SDS011;15925;51.222;5.678;2023-07-22T08:45:13;14.85;;;2.90;;
28772;SDS011;15925;51.222;5.678;2023-07-22T08:47:45;7.28;;;2.70;;
28772;SDS011;15925;51.222;5.678;2023-07-22T08:50:11;12.82;;;2.67;;
28772;SDS011;15925;51.222;5.678;2023-07-22T08:52:43;11.43;;;2.95;;
28772;SDS011;15925;51.222;5.678;2023-07-22T08:55:10;5.25;;;2.40;;
28772;SDS011;15925;51.222;5.678;2023-07-22T08:57:36;11.50;;;2.58;;
28772;SDS011;15925;51.222;5.678;2023-07-22T09:00:03;8.70;;;2.53;;
28772;SDS011;15925;51.222;5.678;2023-07-22T09:02:32;7.25;;;2.88;;
28772;SDS011;15925;51.222;5.678;2023-07-22T09:04:59;12.73;;;2.88;;
28772;SDS011;15925;51.222;5.678;2023-07-22T09:07:25;6.18;;;2.80;;
28772;SDS011;15925;51.222;5.678;2023-07-22T09:09:52;11.70;;;2.47;;
28772;SDS011;15925;51.222;5.678;2023-07-22T09:12:18;6.10;;;2.28;;
28772;SDS011;15925;51.222;5.678;2023-07-22T09:14:46;9.57;;;2.53;;
28772;SDS011;15925;51.222;5.678;2023-07-22T09:17:13;8.30;;;2.60;;
28772;SDS011;15925;51.222;5.678;2023-07-22T09:19:39;7.93;;;2.60;;
28772;SDS011;15925;51.222;5.678;2023-07-22T09:22:04;3.83;;;1.83;;
28772;SDS011;15925;51.222;5.678;2023-07-22T09:24:32;6.20;;;2.60;;
28772;SDS011;15925;51.222;5.678;2023-07-22T09:26:58;26.80;;;3.40;;
28772;SDS011;15925;51.222;5.678;2023-07-22T09:29:34;7.53;;;2.88;;
28772;SDS011;15925;51.222;5.678;2023-07-22T09:32:01;5.68;;;2.42;;
28772;SDS011;15925;51.222;5.678;2023-07-22T09:34:28;6.53;;;2.45;;
28772;SDS011;15925;51.222;5.678;2023-07-22T09:36:55;7.63;;;2.50;;
28772;SDS011;15925;51.222;5.678;2023-07-22T09:39:23;7.70;;;2.53;;
28772;SDS011;15925;51.222;5.678;2023-07-22T09:41:49;9.10;;;2.08;;
28772;SDS011;15925;51.222;5.678;2023-07-22T09:44:18;12.63;;;2.70;;
28772;SDS011;15925;51.222;5.678;2023-07-22T09:46:49;4.78;;;2.10;;
28772;SDS011;15925;51.222;5.678;2023-07-22T09:49:16;4.57;;;1.90;;
28772;SDS011;15925;51.222;5.678;2023-07-22T09:51:43;12.43;;;2.78;;
28772;SDS011;15925;51.222;5.678;2023-07-22T09:54:09;9.00;;;2.38;;
28772;SDS011;15925;51.222;5.678;2023-07-22T09:59:08;6.88;;;1.88;;
28772;SDS011;15925;51.222;5.678;2023-07-22T10:01:37;5.68;;;1.88;;
28772;SDS011;15925;51.222;5.678;2023-07-22T10:04:04;4.40;;;1.50;;
28772;SDS011;15925;51.222;5.678;2023-07-22T10:06:30;6.90;;;1.23;;
28772;SDS011;15925;51.222;5.678;2023-07-22T10:09:00;2.95;;;1.42;;
28772;SDS011;15925;51.222;5.678;2023-07-22T10:11:29;3.22;;;1.40;;
28772;SDS011;15925;51.222;5.678;2023-07-22T10:13:57;4.90;;;1.23;;
28772;SDS011;15925;51.222;5.678;2023-07-22T10:16:24;10.68;;;1.55;;
28772;SDS011;15925;51.222;5.678;2023-07-22T10:18:51;5.47;;;1.35;;
28772;SDS011;15925;51.222;5.678;2023-07-22T10:21:18;5.90;;;1.23;;
28772;SDS011;15925;51.222;5.678;2023-07-22T10:26:14;1.67;;;0.93;;
28772;SDS011;15925;51.222;5.678;2023-07-22T10:28:44;7.38;;;1.13;;
28772;SDS011;15925;51.222;5.678;2023-07-22T10:31:12;5.28;;;1.15;;
28772;SDS011;15925;51.222;5.678;2023-07-22T10:33:38;4.30;;;0.85;;
28772;SDS011;15925;51.222;5.678;2023-07-22T10:36:08;2.75;;;1.00;;
28772;SDS011;15925;51.222;5.678;2023-07-22T10:38:38;1.75;;;1.13;;
28772;SDS011;15925;51.222;5.678;2023-07-22T10:41:15;5.20;;;1.00;;
28772;SDS011;15925;51.222;5.678;2023-07-22T10:43:56;3.70;;;1.67;;
28772;SDS011;15925;51.222;5.678;2023-07-22T10:46:32;1.90;;;1.30;;
28772;SDS011;15925;51.222;5.678;2023-07-22T10:49:09;5.32;;;1.20;;
28772;SDS011;15925;51.222;5.678;2023-07-22T10:51:39;2.10;;;1.20;;
28772;SDS011;15925;51.222;5.678;2023-07-22T10:54:14;3.72;;;1.20;;
28772;SDS011;15925;51.222;5.678;2023-07-22T10:56:57;5.78;;;1.20;;
28772;SDS011;15925;51.222;5.678;2023-07-22T10:59:27;2.03;;;0.80;;
28772;SDS011;15925;51.222;5.678;2023-07-22T11:01:53;3.73;;;0.87;;
28772;SDS011;15925;51.222;5.678;2023-07-22T11:11:53;1.73;;;0.93;;
28772;SDS011;15925;51.222;5.678;2023-07-22T11:14:21;1.65;;;0.85;;
28772;SDS011;15925;51.222;5.678;2023-07-22T11:16:47;4.38;;;1.02;;
28772;SDS011;15925;51.222;5.678;2023-07-22T11:19:14;3.20;;;1.08;;
28772;SDS011;15925;51.222;5.678;2023-07-22T11:21:41;6.97;;;0.98;;
28772;SDS011;15925;51.222;5.678;2023-07-22T11:24:08;1.50;;;0.60;;
28772;SDS011;15925;51.222;5.678;2023-07-22T11:26:34;2.40;;;0.75;;
28772;SDS011;15925;51.222;5.678;2023-07-22T11:29:02;5.70;;;0.70;;
28772;SDS011;15925;51.222;5.678;2023-07-22T11:31:33;3.83;;;0.85;;
28772;SDS011;15925;51.222;5.678;2023-07-22T11:34:08;2.00;;;0.88;;
28772;SDS011;15925;51.222;5.678;2023-07-22T11:36:34;1.40;;;0.65;;
28772;SDS011;15925;51.222;5.678;2023-07-22T11:41:31;1.67;;;0.63;;
28772;SDS011;15925;51.222;5.678;2023-07-22T11:43:58;1.33;;;0.50;;
28772;SDS011;15925;51.222;5.678;2023-07-22T11:46:25;4.43;;;0.60;;
28772;SDS011;15925;51.222;5.678;2023-07-22T11:48:54;3.80;;;0.80;;
28772;SDS011;15925;51.222;5.678;2023-07-22T11:51:21;0.85;;;0.50;;
28772;SDS011;15925;51.222;5.678;2023-07-22T11:53:51;2.90;;;0.63;;
28772;SDS011;15925;51.222;5.678;2023-07-22T11:56:22;3.25;;;1.40;;
28772;SDS011;15925;51.222;5.678;2023-07-22T11:58:52;1.40;;;0.73;;
28772;SDS011;15925;51.222;5.678;2023-07-22T12:01:19;1.40;;;0.88;;
28772;SDS011;15925;51.222;5.678;2023-07-22T12:06:12;1.65;;;0.80;;
28772;SDS011;15925;51.222;5.678;2023-07-22T12:08:43;3.05;;;1.05;;
28772;SDS011;15925;51.222;5.678;2023-07-22T12:11:32;2.63;;;0.88;;
28772;SDS011;15925;51.222;5.678;2023-07-22T12:14:08;4.45;;;0.55;;
28772;SDS011;15925;51.222;5.678;2023-07-22T12:16:36;5.82;;;0.85;;
28772;SDS011;15925;51.222;5.678;2023-07-22T12:19:03;1.50;;;0.95;;
28772;SDS011;15925;51.222;5.678;2023-07-22T12:23:56;5.65;;;1.10;;
28772;SDS011;15925;51.222;5.678;2023-07-22T12:26:22;1.55;;;0.80;;
28772;SDS011;15925;51.222;5.678;2023-07-22T12:28:48;1.70;;;1.02;;
28772;SDS011;15925;51.222;5.678;2023-07-22T12:31:15;12.52;;;0.80;;
28772;SDS011;15925;51.222;5.678;2023-07-22T12:33:41;1.15;;;0.60;;
28772;SDS011;15925;51.222;5.678;2023-07-22T12:36:07;4.18;;;1.08;;
28772;SDS011;15925;51.222;5.678;2023-07-22T12:38:33;6.05;;;0.77;;
28772;SDS011;15925;51.222;5.678;2023-07-22T12:41:00;8.60;;;1.23;;
28772;SDS011;15925;51.222;5.678;2023-07-22T12:45:52;8.30;;;1.13;;
28772;SDS011;15925;51.222;5.678;2023-07-22T12:48:18;4.85;;;0.75;;
28772;SDS011;15925;51.222;5.678;2023-07-22T12:50:44;5.90;;;1.37;;
28772;SDS011;15925;51.222;5.678;2023-07-22T12:53:10;1.50;;;1.05;;
28772;SDS011;15925;51.222;5.678;2023-07-22T12:55:36;0.93;;;0.47;;
28772;SDS011;15925;51.222;5.678;2023-07-22T12:58:01;4.68;;;1.20;;
28772;SDS011;15925;51.222;5.678;2023-07-22T13:00:27;1.93;;;0.70;;
28772;SDS011;15925;51.222;5.678;2023-07-22T13:02:53;1.85;;;0.50;;
28772;SDS011;15925;51.222;5.678;2023-07-22T13:05:19;5.22;;;0.93;;
28772;SDS011;15925;51.222;5.678;2023-07-22T13:07:45;0.97;;;0.70;;
28772;SDS011;15925;51.222;5.678;2023-07-22T13:10:11;7.10;;;0.70;;
28772;SDS011;15925;51.222;5.678;2023-07-22T13:12:41;4.40;;;0.70;;
28772;SDS011;15925;51.222;5.678;2023-07-22T13:15:06;4.40;;;0.75;;
28772;SDS011;15925;51.222;5.678;2023-07-22T13:17:32;3.65;;;1.17;;
28772;SDS011;15925;51.222;5.678;2023-07-22T13:19:58;2.40;;;0.75;;
28772;SDS011;15925;51.222;5.678;2023-07-22T13:22:24;1.38;;;0.70;;
28772;SDS011;15925;51.222;5.678;2023-07-22T13:24:50;3.90;;;0.73;;
28772;SDS011;15925;51.222;5.678;2023-07-22T13:27:16;0.70;;;0.63;;
28772;SDS011;15925;51.222;5.678;2023-07-22T13:29:42;0.80;;;0.70;;
28772;SDS011;15925;51.222;5.678;2023-07-22T13:32:08;0.85;;;0.43;;
28772;SDS011;15925;51.222;5.678;2023-07-22T13:34:33;1.98;;;0.68;;
28772;SDS011;15925;51.222;5.678;2023-07-22T13:36:59;4.47;;;0.77;;
28772;SDS011;15925;51.222;5.678;2023-07-22T13:39:27;0.68;;;0.40;;
28772;SDS011;15925;51.222;5.678;2023-07-22T13:41:53;2.35;;;0.82;;
28772;SDS011;15925;51.222;5.678;2023-07-22T13:44:19;5.53;;;0.80;;
28772;SDS011;15925;51.222;5.678;2023-07-22T13:46:45;6.75;;;1.25;;
28772;SDS011;15925;51.222;5.678;2023-07-22T13:49:10;0.82;;;0.68;;
28772;SDS011;15925;51.222;5.678;2023-07-22T13:51:36;1.63;;;0.70;;
28772;SDS011;15925;51.222;5.678;2023-07-22T13:54:02;1.98;;;0.75;;
28772;SDS011;15925;51.222;5.678;2023-07-22T13:56:28;1.88;;;0.50;;
28772;SDS011;15925;51.222;5.678;2023-07-22T13:58:54;1.38;;;0.68;;
28772;SDS011;15925;51.222;5.678;2023-07-22T14:03:46;2.55;;;0.77;;
28772;SDS011;15925;51.222;5.678;2023-07-22T14:06:11;0.52;;;0.40;;
28772;SDS011;15925;51.222;5.678;2023-07-22T14:08:37;0.97;;;0.87;;
28772;SDS011;15925;51.222;5.678;2023-07-22T14:11:04;0.73;;;0.70;;
28772;SDS011;15925;51.222;5.678;2023-07-22T14:13:30;5.10;;;1.23;;
28772;SDS011;15925;51.222;5.678;2023-07-22T14:15:56;0.97;;;0.70;;
28772;SDS011;15925;51.222;5.678;2023-07-22T14:18:22;5.75;;;1.35;;
28772;SDS011;15925;51.222;5.678;2023-07-22T14:20:47;1.02;;;0.90;;
28772;SDS011;15925;51.222;5.678;2023-07-22T14:23:13;6.32;;;0.80;;
28772;SDS011;15925;51.222;5.678;2023-07-22T14:25:39;2.28;;;0.98;;
28772;SDS011;15925;51.222;5.678;2023-07-22T14:28:05;6.82;;;1.10;;
28772;SDS011;15925;51.222;5.678;2023-07-22T14:30:31;1.67;;;0.70;;
28772;SDS011;15925;51.222;5.678;2023-07-22T14:32:57;5.57;;;1.25;;
28772;SDS011;15925;51.222;5.678;2023-07-22T14:35:23;5.78;;;1.13;;
28772;SDS011;15925;51.222;5.678;2023-07-22T14:37:49;20.20;;;4.38;;
28772;SDS011;15925;51.222;5.678;2023-07-22T14:40:16;2.83;;;0.93;;
28772;SDS011;15925;51.222;5.678;2023-07-22T14:42:42;2.83;;;0.75;;
28772;SDS011;15925;51.222;5.678;2023-07-22T14:45:08;10.40;;;1.60;;
28772;SDS011;15925;51.222;5.678;2023-07-22T14:47:34;3.63;;;1.50;;
28772;SDS011;15925;51.222;5.678;2023-07-22T14:50:09;1.58;;;0.90;;
28772;SDS011;15925;51.222;5.678;2023-07-22T14:55:01;4.72;;;1.00;;
28772;SDS011;15925;51.222;5.678;2023-07-22T14:57:27;1.02;;;0.82;;
28772;SDS011;15925;51.222;5.678;2023-07-22T14:59:57;4.20;;;1.25;;
28772;SDS011;15925;51.222;5.678;2023-07-22T15:02:23;1.90;;;0.70;;
28772;SDS011;15925;51.222;5.678;2023-07-22T15:04:49;0.60;;;0.60;;
28772;SDS011;15925;51.222;5.678;2023-07-22T15:07:14;4.65;;;1.45;;
28772;SDS011;15925;51.222;5.678;2023-07-22T15:09:40;4.80;;;1.10;;
28772;SDS011;15925;51.222;5.678;2023-07-22T15:12:06;1.27;;;0.80;;
28772;SDS011;15925;51.222;5.678;2023-07-22T15:14:35;3.95;;;0.80;;
28772;SDS011;15925;51.222;5.678;2023-07-22T15:17:02;3.70;;;0.70;;
28772;SDS011;15925;51.222;5.678;2023-07-22T15:19:28;2.53;;;0.60;;